Etusivu
METAR-TAF:

METAR-TAF

Lentoasemat :

Ankara Esenboğa, Turkki

Leveyspiiri: 40-07N, Pituuspiiri: 032-59E, korkeus merenpinnasta: 953 m

Tämänhetkinen sää

Tämä raportti tehtiin 25 minuuttia sitten, kello 23.50 UTC
Tuuli 4 kn pohjoisesta/koillisesta
Lämpötila 4°C
Kosteus 70%
Ilmanpaine 1015 hPa
Näkyvyys 10 km tai enemmän
Hajanaisia pilviä 4000 ft:n korkeudessa

METAR: LTAC 202350Z 02004KT 9999 SCT040 04/M01 Q1015 NOSIG RMK RWY21L 03011KT RWY03L 03003KT 310V100 RWY21R 03009KT

Aika: 03:15 (00:15 UTC)

Sääennuste

Tämä raportti tehtiin 1 tunti ja 35 minuuttia sitten, kello 22.40 UTC
Ennuste voimassa 21. päivästä klo 00 UTC - 21. päivään klo 24 UTC
Tuuli 8 kn pohjoisesta/koillisesta
Näkyvyys 10 km tai enemmän
Hajanaisia pilviä 3500 ft:n korkeudessa
Ajoittain
21. päivästä klo 10 UTC - 21. päivään klo 14 UTC
Tuuli 18 kn pohjoisesta/koillisesta

TAF: LTAC 202240Z 2100/2124 02008KT 9999 SCT035 TEMPO 2110/2114 03018KT

Säähavainnot ja -ennusteet yli 4000 lentoasemalta (METAR- ja TAF-raportit).

Käytössä olevat sääasemat on merkitty karttaan keltaisilla ja punaisilla pisteillä.

Aseta hiiri pisteen päälle nähdäksesi sääaseman nimen.

Klikkaa sitten nähdäksesi säähavainnot ja -ennusteet.

Kartan vaihtaminen: klikkaa mustalla rastilla varustettuja vihreitä pisteitä, niin voit zoomata sisään; viivalla varustettua vihreää pistettä, niin voit zoomata ulos tai vihreitä nuolia, niin pääset viereisille kartoille.


METAR-TAF: